createdAt,value
2022-11-20T00:00:21.276Z,-2.64
2022-11-20T00:03:24.265Z,-2.60
2022-11-20T00:06:27.796Z,-2.58
2022-11-20T00:09:31.013Z,-2.81
2022-11-20T00:12:33.553Z,-2.54
2022-11-20T00:15:36.006Z,-2.54
2022-11-20T00:18:38.989Z,-2.45
2022-11-20T00:21:41.960Z,-2.54
2022-11-20T00:24:44.447Z,-2.54
2022-11-20T00:27:47.792Z,-2.46
2022-11-20T00:30:50.463Z,-2.59
2022-11-20T00:33:53.397Z,-2.37
2022-11-20T00:36:56.111Z,-2.53
2022-11-20T00:39:58.375Z,-2.54
2022-11-20T00:43:00.899Z,-2.60
2022-11-20T00:46:06.630Z,-2.68
2022-11-20T00:49:10.164Z,-2.72
2022-11-20T00:52:12.829Z,-2.55
2022-11-20T00:55:15.350Z,-2.67
2022-11-20T00:58:17.935Z,-2.53
2022-11-20T01:01:25.322Z,-2.48
2022-11-20T01:04:28.040Z,-2.56
2022-11-20T01:07:30.522Z,-2.63
2022-11-20T01:10:33.074Z,-2.59
2022-11-20T01:13:40.675Z,-2.52
2022-11-20T01:16:46.000Z,-2.65
2022-11-20T01:19:52.626Z,-2.55
2022-11-20T01:22:56.400Z,-2.76
2022-11-20T01:26:00.882Z,-2.43
2022-11-20T01:29:04.474Z,-2.53
2022-11-20T01:32:07.274Z,-2.67
2022-11-20T01:35:10.777Z,-2.59
2022-11-20T01:38:13.403Z,-2.61
2022-11-20T01:41:37.835Z,-2.52
2022-11-20T01:45:01.873Z,-2.60
2022-11-20T01:48:04.547Z,-2.62
2022-11-20T01:51:15.585Z,-2.64
2022-11-20T01:54:25.515Z,-2.54
2022-11-20T01:57:30.349Z,-2.59
2022-11-20T02:00:32.736Z,-2.30
2022-11-20T02:03:35.309Z,-2.55
2022-11-20T02:06:50.669Z,-2.47
2022-11-20T02:09:58.557Z,-2.26
2022-11-20T02:13:20.433Z,-2.31
2022-11-20T02:16:28.361Z,-2.49
2022-11-20T02:19:33.436Z,-2.50
2022-11-20T02:22:47.045Z,-2.54
2022-11-20T02:25:49.675Z,-2.52
2022-11-20T02:28:52.504Z,-2.42
2022-11-20T02:31:56.735Z,-2.49
2022-11-20T02:34:59.582Z,-2.37
2022-11-20T02:38:04.309Z,-2.54
2022-11-20T02:41:06.596Z,-2.53
2022-11-20T02:44:09.238Z,-2.56
2022-11-20T02:47:11.702Z,-2.43
2022-11-20T02:50:14.595Z,-2.46
2022-11-20T02:53:16.856Z,-2.42
2022-11-20T02:56:19.293Z,-2.46
2022-11-20T02:59:22.201Z,-2.42
2022-11-20T03:02:25.278Z,-2.47
2022-11-20T03:05:27.916Z,-2.35
2022-11-20T03:08:30.380Z,-2.38
2022-11-20T03:11:32.896Z,-2.27
2022-11-20T03:14:38.110Z,-2.29
2022-11-20T03:17:41.554Z,-2.45
2022-11-20T03:20:45.029Z,-2.33
2022-11-20T03:23:47.869Z,-2.48
2022-11-20T03:26:51.081Z,-2.58
2022-11-20T03:29:54.602Z,-2.56
2022-11-20T03:32:57.310Z,-2.33
2022-11-20T03:36:04.136Z,-2.42
2022-11-20T03:39:06.682Z,-2.39
2022-11-20T03:42:30.279Z,-2.24
2022-11-20T03:45:33.363Z,-2.04
2022-11-20T03:48:36.346Z,-2.21
2022-11-20T03:51:38.740Z,-2.29
2022-11-20T03:54:41.675Z,-2.21
2022-11-20T03:57:44.175Z,-2.44
2022-11-20T04:00:46.651Z,-2.26
2022-11-20T04:03:49.618Z,-2.22
2022-11-20T04:06:51.991Z,-2.41
2022-11-20T04:09:55.347Z,-2.43
2022-11-20T04:12:57.856Z,-2.49
2022-11-20T04:16:00.160Z,-2.46
2022-11-20T04:19:04.943Z,-2.42
2022-11-20T04:22:07.489Z,-2.41
2022-11-20T04:25:11.002Z,-2.40
2022-11-20T04:28:14.758Z,-2.43
2022-11-20T04:31:27.579Z,-2.40
2022-11-20T04:34:30.091Z,-2.48
2022-11-20T04:37:32.395Z,-2.42
2022-11-20T04:40:35.091Z,-2.04
2022-11-20T04:43:37.931Z,-2.04
2022-11-20T04:46:44.115Z,-2.23
2022-11-20T04:49:46.799Z,-2.25
2022-11-20T04:52:49.522Z,-2.30
2022-11-20T04:55:52.369Z,-2.22
2022-11-20T04:58:54.865Z,-2.14
2022-11-20T05:01:57.663Z,-2.22
2022-11-20T05:05:00.903Z,-2.43
2022-11-20T05:08:03.855Z,-2.25
2022-11-20T05:11:09.631Z,-2.27
2022-11-20T05:14:12.216Z,-2.31
2022-11-20T05:17:15.559Z,-2.25
2022-11-20T05:20:18.969Z,-2.27
2022-11-20T05:23:21.741Z,-2.33
2022-11-20T05:26:25.366Z,-2.12
2022-11-20T05:29:28.025Z,-2.30
2022-11-20T05:32:30.521Z,-2.31
2022-11-20T05:35:33.050Z,-2.24
2022-11-20T05:38:37.205Z,-2.42
2022-11-20T05:41:40.022Z,-2.38
2022-11-20T05:44:42.609Z,-2.39
2022-11-20T05:47:45.285Z,-2.68
2022-11-20T05:50:47.989Z,-2.77
2022-11-20T05:53:50.870Z,-2.43
2022-11-20T05:56:54.386Z,-2.69
2022-11-20T05:59:56.921Z,-2.58
2022-11-20T06:02:59.393Z,-2.65
2022-11-20T06:06:03.429Z,-2.65
2022-11-20T06:09:06.074Z,-2.54
2022-11-20T06:12:09.115Z,-2.39
2022-11-20T06:15:12.093Z,-2.69
2022-11-20T06:18:15.263Z,-2.64
2022-11-20T06:21:20.564Z,-2.60
2022-11-20T06:24:23.948Z,-2.49
2022-11-20T06:27:26.680Z,-2.59
2022-11-20T06:30:29.175Z,-2.58
2022-11-20T06:33:32.613Z,-2.39
2022-11-20T06:36:35.412Z,-2.44
2022-11-20T06:39:37.753Z,-2.39
2022-11-20T06:42:40.158Z,-2.36
2022-11-20T06:45:44.515Z,-2.61
2022-11-20T06:48:50.380Z,-2.39
2022-11-20T06:51:52.943Z,-2.30
2022-11-20T06:54:55.593Z,-2.11
2022-11-20T06:57:58.137Z,-2.42
2022-11-20T07:01:27.296Z,-2.46
2022-11-20T07:04:30.264Z,-2.40
2022-11-20T07:07:32.819Z,-2.31
2022-11-20T07:10:35.964Z,-2.40
2022-11-20T07:13:39.268Z,-2.36
2022-11-20T07:16:41.949Z,-2.39
2022-11-20T07:19:44.641Z,-2.53
2022-11-20T07:22:47.270Z,-2.54
2022-11-20T07:25:49.621Z,-2.53
2022-11-20T07:28:52.106Z,-2.54
2022-11-20T07:31:57.181Z,-2.46
2022-11-20T07:35:00.118Z,-2.32
2022-11-20T07:38:02.550Z,-2.54
2022-11-20T07:41:05.116Z,-2.36
2022-11-20T07:44:08.154Z,-2.35
2022-11-20T07:47:14.306Z,-2.27
2022-11-20T07:50:17.168Z,-2.30
2022-11-20T07:53:21.882Z,-2.52
2022-11-20T07:56:24.645Z,-2.28
2022-11-20T07:59:26.890Z,-1.99
2022-11-20T08:02:29.315Z,-1.95
2022-11-20T08:05:32.091Z,-1.99
2022-11-20T08:08:37.849Z,-2.06
2022-11-20T08:12:01.924Z,-1.94
2022-11-20T08:15:12.608Z,-2.01
2022-11-20T08:18:30.439Z,-1.94
2022-11-20T08:21:38.202Z,-1.74
2022-11-20T08:24:41.018Z,-1.74
2022-11-20T08:27:43.308Z,-1.63
2022-11-20T08:30:47.057Z,-1.63
2022-11-20T08:33:49.452Z,-1.51
2022-11-20T08:36:52.666Z,-1.84
2022-11-20T08:39:58.133Z,-1.88
2022-11-20T08:43:00.783Z,-1.98
2022-11-20T08:46:03.440Z,-2.04
2022-11-20T08:49:07.285Z,-1.93
2022-11-20T08:52:09.825Z,-2.09
2022-11-20T08:55:12.964Z,-1.76
2022-11-20T08:58:16.914Z,-1.98
2022-11-20T09:01:21.373Z,-1.79
2022-11-20T09:04:23.816Z,-1.69
2022-11-20T09:07:26.937Z,-1.76
2022-11-20T09:10:29.649Z,-1.78
2022-11-20T09:13:33.614Z,-1.81
2022-11-20T09:16:36.279Z,-1.72
2022-11-20T09:19:38.705Z,-1.66
2022-11-20T09:22:42.016Z,-1.48
2022-11-20T09:25:44.945Z,-1.35
2022-11-20T09:28:47.453Z,-1.09
2022-11-20T09:31:49.859Z,-0.81
2022-11-20T09:34:53.648Z,-0.89
2022-11-20T09:37:56.169Z,-0.84
2022-11-20T09:41:02.458Z,-1.08
2022-11-20T09:44:33.989Z,-1.06
2022-11-20T09:48:24.352Z,-1.01
2022-11-20T09:51:32.754Z,-1.07
2022-11-20T09:54:38.095Z,-0.81
2022-11-20T09:57:46.517Z,-0.53
2022-11-20T10:00:49.507Z,-0.51
2022-11-20T10:03:57.527Z,-0.53
2022-11-20T10:07:31.760Z,-0.68
2022-11-20T10:10:43.602Z,-0.87
2022-11-20T10:14:20.940Z,-0.91
2022-11-20T10:17:23.727Z,-0.94
2022-11-20T10:20:50.937Z,-0.77
2022-11-20T10:24:05.075Z,-0.87
2022-11-20T10:27:36.358Z,-0.63
2022-11-20T10:30:42.392Z,-0.71
2022-11-20T10:34:11.006Z,-0.63
2022-11-20T10:37:34.275Z,-0.79
2022-11-20T10:40:43.157Z,-0.91
2022-11-20T10:43:46.222Z,-0.86
2022-11-20T10:46:49.035Z,-0.78
2022-11-20T10:49:58.466Z,-0.68
2022-11-20T10:53:21.114Z,-0.58
2022-11-20T10:56:48.301Z,-0.59
2022-11-20T10:59:58.367Z,-0.30
2022-11-20T11:03:04.180Z,-0.30
2022-11-20T11:06:28.420Z,-0.15
2022-11-20T11:09:41.928Z,-0.40
2022-11-20T11:12:52.255Z,-0.46
2022-11-20T11:15:57.761Z,-0.63
2022-11-20T11:19:14.684Z,-0.70
2022-11-20T11:22:19.652Z,-0.49
2022-11-20T11:25:35.591Z,-0.47
2022-11-20T11:28:38.161Z,-0.27
2022-11-20T11:31:40.573Z,-0.31
2022-11-20T11:34:44.062Z,-0.29
2022-11-20T11:37:50.460Z,0.02
2022-11-20T11:40:55.658Z,-0.14
2022-11-20T11:44:18.494Z,-0.43
2022-11-20T11:47:39.709Z,-0.36
2022-11-20T11:50:51.065Z,-0.58
2022-11-20T11:53:54.783Z,-0.52
2022-11-20T11:56:57.661Z,-0.71
2022-11-20T12:00:07.982Z,-0.78
2022-11-20T12:03:21.046Z,-1.03
2022-11-20T12:06:24.188Z,-1.03
2022-11-20T12:09:34.082Z,-0.86
2022-11-20T12:12:44.656Z,-1.05
2022-11-20T12:15:49.251Z,-1.23
2022-11-20T12:18:54.038Z,-1.11
2022-11-20T12:22:15.516Z,-0.84
2022-11-20T12:25:28.097Z,-1.13
2022-11-20T12:28:41.691Z,-1.34
2022-11-20T12:31:57.751Z,-1.29
2022-11-20T12:35:27.827Z,-1.24
2022-11-20T12:38:39.953Z,-1.02
2022-11-20T12:42:16.139Z,-1.11
2022-11-20T12:45:57.633Z,-1.13
2022-11-20T12:49:06.858Z,-1.22
2022-11-20T12:52:22.475Z,-1.18
2022-11-20T12:55:38.335Z,-1.33
2022-11-20T12:58:46.421Z,-1.31
2022-11-20T13:01:55.823Z,-1.36
2022-11-20T13:05:13.862Z,-1.40
2022-11-20T13:08:25.616Z,-1.39
2022-11-20T13:12:13.967Z,-1.27
2022-11-20T13:15:37.624Z,-1.28
2022-11-20T13:18:43.698Z,-1.20
2022-11-20T13:21:50.342Z,-1.20
2022-11-20T13:24:53.505Z,-1.20
2022-11-20T13:27:58.261Z,-1.12
2022-11-20T13:31:00.774Z,-0.84
2022-11-20T13:34:06.055Z,-0.73
2022-11-20T13:37:33.441Z,-0.81
2022-11-20T13:40:52.128Z,-0.91
2022-11-20T13:43:54.611Z,-0.74
2022-11-20T13:46:57.085Z,-0.87
2022-11-20T13:50:03.406Z,-1.20
2022-11-20T13:53:09.157Z,-1.03
2022-11-20T13:56:45.296Z,-1.15
2022-11-20T14:00:07.905Z,-1.09
2022-11-20T14:03:37.840Z,-1.14
2022-11-20T14:06:46.188Z,-1.01
2022-11-20T14:09:58.506Z,-1.08
2022-11-20T14:13:12.814Z,-1.05
2022-11-20T14:16:21.626Z,-1.12
2022-11-20T14:19:29.925Z,-1.03
2022-11-20T14:22:33.504Z,-1.34
2022-11-20T14:25:36.209Z,-1.18
2022-11-20T14:28:38.779Z,-1.13
2022-11-20T14:31:41.561Z,-1.17
2022-11-20T14:34:47.800Z,-1.20
2022-11-20T14:37:51.091Z,-1.24
2022-11-20T14:40:54.343Z,-1.29
2022-11-20T14:44:00.925Z,-1.20
2022-11-20T14:47:06.736Z,-1.32
2022-11-20T14:50:29.272Z,-1.23
2022-11-20T14:53:32.318Z,-1.22
2022-11-20T14:56:34.662Z,-1.28
2022-11-20T14:59:37.306Z,-1.34
2022-11-20T15:02:47.629Z,-1.30
2022-11-20T15:05:52.297Z,-1.25
2022-11-20T15:08:55.684Z,-1.27
2022-11-20T15:12:03.659Z,-1.35
2022-11-20T15:15:07.510Z,-1.38
2022-11-20T15:18:20.319Z,-1.47
2022-11-20T15:21:23.088Z,-1.34
2022-11-20T15:24:26.133Z,-1.38
2022-11-20T15:27:28.731Z,-1.32
2022-11-20T15:30:31.587Z,-1.30
2022-11-20T15:33:35.300Z,-1.28
2022-11-20T15:36:37.811Z,-1.26
2022-11-20T15:39:42.191Z,-1.42
2022-11-20T15:43:05.851Z,-1.36
2022-11-20T15:46:13.932Z,-1.39
2022-11-20T15:49:19.853Z,-1.33
2022-11-20T15:52:23.102Z,-1.39
2022-11-20T15:55:27.302Z,-1.35
2022-11-20T15:58:30.661Z,-1.39
2022-11-20T16:01:35.923Z,-1.39
2022-11-20T16:04:38.839Z,-1.42
2022-11-20T16:07:41.543Z,-1.43
2022-11-20T16:10:44.253Z,-1.45
2022-11-20T16:14:07.631Z,-1.39
2022-11-20T16:17:10.552Z,-1.41
2022-11-20T16:20:13.506Z,-1.34
2022-11-20T16:23:16.788Z,-1.46
2022-11-20T16:26:21.954Z,-1.21
2022-11-20T16:29:25.532Z,-1.59
2022-11-20T16:32:28.844Z,-1.48
2022-11-20T16:35:32.949Z,-1.45
2022-11-20T16:38:36.279Z,-1.41
2022-11-20T16:41:38.821Z,-1.33
2022-11-20T16:44:41.251Z,-1.42
2022-11-20T16:47:46.264Z,-1.37
2022-11-20T16:50:53.767Z,-1.19
2022-11-20T16:53:59.495Z,-1.29
2022-11-20T16:57:04.008Z,-1.15
2022-11-20T17:00:07.163Z,-1.25
2022-11-20T17:03:10.939Z,-1.39
2022-11-20T17:06:16.798Z,-1.28
2022-11-20T17:09:19.939Z,-1.34
2022-11-20T17:12:25.157Z,-1.23
2022-11-20T17:15:28.035Z,-1.25
2022-11-20T17:18:31.101Z,-1.12
2022-11-20T17:21:36.321Z,-1.18
2022-11-20T17:24:39.979Z,-1.24
2022-11-20T17:27:43.800Z,-1.15
2022-11-20T17:30:46.480Z,-1.28
2022-11-20T17:33:49.127Z,-1.33
2022-11-20T17:36:52.042Z,-1.40
2022-11-20T17:39:55.157Z,-1.20
2022-11-20T17:42:59.248Z,-1.27
2022-11-20T17:46:02.718Z,-1.15
2022-11-20T17:49:05.409Z,-1.32
2022-11-20T17:52:08.114Z,-1.42
2022-11-20T17:55:11.089Z,-1.58
2022-11-20T17:58:13.691Z,-1.25
2022-11-20T18:01:17.507Z,-1.24
2022-11-20T18:04:20.064Z,-1.39
2022-11-20T18:07:23.489Z,-1.38
2022-11-20T18:10:25.862Z,-1.42
2022-11-20T18:13:48.442Z,-1.57
2022-11-20T18:16:56.644Z,-1.60
2022-11-20T18:20:28.315Z,-1.47
2022-11-20T18:23:21.894Z,-1.46
2022-11-20T18:26:26.672Z,-1.60
2022-11-20T18:29:31.278Z,-1.48
2022-11-20T18:32:38.202Z,-1.69
2022-11-20T18:35:43.313Z,-1.56
2022-11-20T18:38:47.709Z,-1.81
2022-11-20T18:42:10.889Z,-1.65
2022-11-20T18:45:13.606Z,-1.86
2022-11-20T18:48:16.613Z,-1.92
2022-11-20T18:51:19.217Z,-1.71
2022-11-20T18:54:22.033Z,-1.72
2022-11-20T18:57:26.594Z,-1.90
2022-11-20T19:00:28.918Z,-1.75
2022-11-20T19:03:31.810Z,-1.75
2022-11-20T19:06:34.351Z,-1.84
2022-11-20T19:09:37.549Z,-1.82
2022-11-20T19:12:40.201Z,-1.74
2022-11-20T19:15:42.676Z,-1.83
2022-11-20T19:18:45.584Z,-1.69
2022-11-20T19:21:48.954Z,-1.85
2022-11-20T19:24:51.945Z,-1.75
2022-11-20T19:27:57.098Z,-1.75
2022-11-20T19:31:11.647Z,-1.75
2022-11-20T19:34:16.222Z,-2.07
2022-11-20T19:37:19.274Z,-1.81
2022-11-20T19:40:22.253Z,-1.71
2022-11-20T19:43:25.344Z,-1.79
2022-11-20T19:46:31.205Z,-2.00
2022-11-20T19:49:34.092Z,-1.95
2022-11-20T19:52:36.646Z,-1.99
2022-11-20T19:55:40.117Z,-1.99
2022-11-20T19:58:43.814Z,-1.87
2022-11-20T20:01:49.831Z,-2.10
2022-11-20T20:04:52.760Z,-1.94
2022-11-20T20:07:56.934Z,-1.64
2022-11-20T20:10:59.916Z,-1.84
2022-11-20T20:14:14.665Z,-1.87
2022-11-20T20:17:17.321Z,-1.87
2022-11-20T20:20:19.871Z,-2.02
2022-11-20T20:23:22.382Z,-1.97
2022-11-20T20:26:25.417Z,-1.93
2022-11-20T20:29:27.952Z,-1.99
2022-11-20T20:32:32.542Z,-1.97
2022-11-20T20:35:35.176Z,-1.95
2022-11-20T20:38:37.777Z,-2.04
2022-11-20T20:41:41.742Z,-1.88
2022-11-20T20:45:02.880Z,-1.84
2022-11-20T20:48:05.856Z,-1.88
2022-11-20T20:51:10.116Z,-1.76
2022-11-20T20:54:12.550Z,-1.83
2022-11-20T20:57:16.209Z,-2.05
2022-11-20T21:00:19.046Z,-2.03
2022-11-20T21:03:21.738Z,-1.96
2022-11-20T21:06:24.357Z,-1.97
2022-11-20T21:09:26.828Z,-1.90
2022-11-20T21:12:29.486Z,-1.83
2022-11-20T21:15:32.696Z,-1.78
2022-11-20T21:18:36.835Z,-1.97
2022-11-20T21:21:58.379Z,-1.83
2022-11-20T21:25:01.574Z,-1.78
2022-11-20T21:28:04.423Z,-1.68
2022-11-20T21:31:08.211Z,-1.71
2022-11-20T21:34:13.124Z,-1.71
2022-11-20T21:37:15.444Z,-1.70
2022-11-20T21:40:17.929Z,-1.76
2022-11-20T21:43:21.198Z,-1.83
2022-11-20T21:46:24.201Z,-2.06
2022-11-20T21:49:26.916Z,-1.68
2022-11-20T21:52:29.598Z,-1.70
2022-11-20T21:55:32.348Z,-1.81
2022-11-20T21:58:36.479Z,-1.78
2022-11-20T22:01:39.852Z,-1.71
2022-11-20T22:04:42.673Z,-1.80
2022-11-20T22:07:46.148Z,-1.67
2022-11-20T22:11:04.327Z,-1.69
2022-11-20T22:14:22.773Z,-1.70
2022-11-20T22:17:45.116Z,-1.75
2022-11-20T22:20:47.628Z,-1.74
2022-11-20T22:23:50.825Z,-1.60
2022-11-20T22:26:54.026Z,-1.63
2022-11-20T22:29:57.470Z,-1.64
2022-11-20T22:33:00.199Z,-1.69
2022-11-20T22:36:06.868Z,-1.72
2022-11-20T22:39:10.041Z,-1.79
2022-11-20T22:42:12.464Z,-1.94
2022-11-20T22:45:15.276Z,-2.12
2022-11-20T22:48:19.003Z,-2.56
2022-11-20T22:51:24.481Z,-2.46
2022-11-20T22:54:27.167Z,-2.60
2022-11-20T22:57:29.616Z,-2.78
2022-11-20T23:00:32.305Z,-2.81
2022-11-20T23:03:35.490Z,-2.80
2022-11-20T23:06:38.528Z,-2.60
2022-11-20T23:09:42.402Z,-2.40
2022-11-20T23:12:45.079Z,-2.42
2022-11-20T23:15:48.075Z,-2.45
2022-11-20T23:18:55.878Z,-2.53
2022-11-20T23:21:58.399Z,-2.76
2022-11-20T23:25:00.716Z,-2.58
2022-11-20T23:28:05.062Z,-2.62
2022-11-20T23:31:08.305Z,-2.47
2022-11-20T23:34:11.074Z,-2.40
2022-11-20T23:37:14.689Z,-2.29
2022-11-20T23:40:19.353Z,-2.27
2022-11-20T23:43:23.213Z,-2.24
2022-11-20T23:46:25.554Z,-2.44
2022-11-20T23:49:28.071Z,-2.65
2022-11-20T23:52:30.594Z,-2.59
2022-11-20T23:55:32.937Z,-2.51
2022-11-20T23:58:37.502Z,-2.50
